Terminal Aerodrome Forecast
Issued by NWS Flagstaff, AZ

Home | Current Version | Previous Version | Text Only | Print | Product List | Glossary On
Versions: 1 2 3 4 5 6 7 8 9 10 11 12 13 14 15 16 17 18
000
FTUS45 KFGZ 281400 AAA
TAFFLG
TAF AMD
KFLG 281444Z 2815/0112 22015G28KT 5SM -SHSNRA BR SCT010 OVC020
      TEMPO 2815/2817 3SM -SHSN BR BKN008
     FM281830 22020G35KT 3SM -SHSNRA BR SCT012 BKN025
      TEMPO 2819/2823 1SM -SHSN BR OVC008
     FM010200 23012G23KT 4SM -SHSN BR SCT018 OVC030=

USA.gov is the U.S. government's official web portal to all federal, state and local government web resources and services.